Mosquero, New Mexico
Current Conditions -  °F | °C
As of 12:53 PM on Thursday 18 Dec 2014 (Local Time) from KTCC Reporting Station
Clear Clear  
Wind Chill: 40°   Ceiling: Unl
Heat Index: 44°   Visibility: 10mi
Dew Point: 32°   Wind: 7mph
Humidity: 63%   Direction: 40°NE
Pressure: 30.02"   Gusts: NA
Location:  35.78°N, 103.96°W
Report Text: KTCC 181953Z AUTO 04006KT 10SM CLR 07/00 A3002 RMK AO2 SLP167 T00670000
Loading
Personal Weather Stations






























Interactive Weather Map New forecast layout! Learn more

10-Day Weather Forecast

Advertisements
Track Severe Weather on mobile